createdAt,value
2018-10-16T00:01:00.953Z,9.90
2018-10-16T00:03:32.073Z,9.90
2018-10-16T00:06:03.653Z,9.70
2018-10-16T00:08:35.060Z,9.70
2018-10-16T00:11:06.402Z,9.50
2018-10-16T00:13:38.056Z,9.60
2018-10-16T00:16:09.394Z,9.60
2018-10-16T00:18:40.652Z,9.70
2018-10-16T00:21:12.505Z,9.70
2018-10-16T00:26:09.645Z,9.70
2018-10-16T00:28:41.322Z,9.60
2018-10-16T00:31:12.575Z,9.50
2018-10-16T00:33:43.698Z,9.50
2018-10-16T00:36:14.883Z,9.40
2018-10-16T00:38:46.246Z,9.40
2018-10-16T00:41:17.729Z,9.50
2018-10-16T00:43:48.749Z,9.50
2018-10-16T00:46:19.845Z,9.50
2018-10-16T00:48:51.068Z,9.40
2018-10-16T00:51:22.621Z,9.30
2018-10-16T00:53:53.769Z,9.20
2018-10-16T00:56:25.018Z,9.10
2018-10-16T00:58:56.565Z,9.00
2018-10-16T01:01:33.134Z,9.00
2018-10-16T01:04:05.607Z,9.00
2018-10-16T01:06:37.474Z,8.90
2018-10-16T01:09:12.217Z,8.70
2018-10-16T01:11:43.669Z,8.70
2018-10-16T01:14:14.930Z,8.70
2018-10-16T01:16:46.238Z,8.70
2018-10-16T01:19:18.033Z,8.60
2018-10-16T01:21:49.057Z,8.50
2018-10-16T01:24:20.682Z,8.40
2018-10-16T01:26:52.232Z,8.40
2018-10-16T01:29:23.922Z,8.30
2018-10-16T01:31:55.766Z,8.20
2018-10-16T01:34:27.247Z,8.20
2018-10-16T01:36:58.231Z,8.10
2018-10-16T01:39:30.119Z,8.00
2018-10-16T01:42:01.560Z,7.90
2018-10-16T01:44:33.310Z,7.70
2018-10-16T01:47:05.075Z,7.60
2018-10-16T01:52:02.322Z,7.40
2018-10-16T01:54:33.989Z,7.40
2018-10-16T01:57:05.502Z,7.50
2018-10-16T01:59:37.004Z,7.50
2018-10-16T02:02:08.856Z,7.60
2018-10-16T02:04:40.087Z,7.50
2018-10-16T02:07:11.526Z,7.50
2018-10-16T02:09:42.892Z,7.50
2018-10-16T02:12:15.338Z,7.50
2018-10-16T02:14:47.437Z,7.40
2018-10-16T02:17:19.222Z,7.40
2018-10-16T02:19:50.518Z,7.50
2018-10-16T02:22:21.781Z,7.40
2018-10-16T02:24:53.300Z,7.50
2018-10-16T02:27:25.236Z,7.50
2018-10-16T02:29:56.732Z,7.50
2018-10-16T02:32:28.470Z,7.50
2018-10-16T02:35:00.253Z,7.50
2018-10-16T02:37:31.590Z,7.50
2018-10-16T02:40:03.235Z,7.50
2018-10-16T02:42:34.566Z,7.40
2018-10-16T02:45:06.063Z,6.90
2018-10-16T02:47:37.913Z,6.50
2018-10-16T02:50:10.701Z,6.10
2018-10-16T02:52:42.263Z,5.80
2018-10-16T02:55:13.453Z,5.50
2018-10-16T02:57:44.821Z,5.50
2018-10-16T03:00:16.194Z,5.40
2018-10-16T03:02:47.761Z,5.40
2018-10-16T03:05:19.158Z,5.30
2018-10-16T03:07:50.416Z,5.30
2018-10-16T03:10:21.775Z,5.30
2018-10-16T03:12:53.431Z,5.40
2018-10-16T03:15:25.375Z,5.40
2018-10-16T03:17:56.909Z,5.50
2018-10-16T03:20:28.523Z,5.50
2018-10-16T03:23:00.219Z,5.50
2018-10-16T03:25:31.674Z,5.50
2018-10-16T03:28:03.019Z,5.50
2018-10-16T03:30:34.909Z,5.50
2018-10-16T03:33:06.640Z,5.40
2018-10-16T03:35:38.236Z,5.40
2018-10-16T03:38:09.617Z,5.40
2018-10-16T03:40:41.005Z,5.20
2018-10-16T03:43:12.745Z,5.10
2018-10-16T03:45:44.776Z,5.00
2018-10-16T03:48:16.261Z,4.90
2018-10-16T03:50:47.572Z,4.90
2018-10-16T03:53:19.068Z,4.80
2018-10-16T03:55:50.607Z,4.70
2018-10-16T03:58:22.658Z,4.80
2018-10-16T04:00:54.125Z,4.80
2018-10-16T04:03:25.352Z,4.80
2018-10-16T04:05:56.592Z,4.90
2018-10-16T04:08:27.619Z,4.80
2018-10-16T04:10:59.498Z,4.80
2018-10-16T04:13:30.841Z,4.70
2018-10-16T04:16:02.680Z,4.60
2018-10-16T04:18:34.056Z,4.50
2018-10-16T04:21:05.815Z,4.50
2018-10-16T04:23:36.933Z,4.60
2018-10-16T04:26:08.316Z,4.60
2018-10-16T04:28:40.060Z,4.50
2018-10-16T04:31:12.266Z,4.60
2018-10-16T04:33:44.393Z,4.60
2018-10-16T04:36:16.090Z,4.50
2018-10-16T04:38:47.215Z,4.50
2018-10-16T04:41:18.438Z,4.40
2018-10-16T04:43:49.432Z,4.40
2018-10-16T04:46:20.881Z,4.30
2018-10-16T04:48:51.943Z,4.30
2018-10-16T04:51:23.525Z,4.30
2018-10-16T04:53:54.564Z,4.30
2018-10-16T04:56:27.127Z,4.40
2018-10-16T04:58:58.274Z,4.40
2018-10-16T05:01:30.539Z,4.30
2018-10-16T05:04:01.992Z,4.30
2018-10-16T05:06:33.115Z,4.20
2018-10-16T05:09:05.729Z,4.30
2018-10-16T05:11:40.587Z,4.30
2018-10-16T05:14:11.713Z,4.40
2018-10-16T05:16:42.976Z,4.40
2018-10-16T05:19:14.347Z,4.30
2018-10-16T05:21:45.621Z,4.40
2018-10-16T05:24:17.373Z,4.40
2018-10-16T05:26:48.885Z,4.40
2018-10-16T05:29:20.575Z,4.50
2018-10-16T05:31:52.381Z,4.50
2018-10-16T05:34:23.404Z,4.60
2018-10-16T05:36:54.425Z,4.60
2018-10-16T05:39:26.037Z,4.60
2018-10-16T05:41:57.145Z,4.60
2018-10-16T05:44:28.321Z,4.60
2018-10-16T05:46:59.673Z,4.60
2018-10-16T05:49:30.821Z,4.50
2018-10-16T05:52:01.930Z,4.50
2018-10-16T05:54:32.934Z,4.60
2018-10-16T05:57:03.974Z,4.70
2018-10-16T05:59:35.150Z,4.70
2018-10-16T06:02:06.614Z,4.70
2018-10-16T06:04:37.711Z,4.70
2018-10-16T06:07:08.764Z,4.70
2018-10-16T06:09:39.791Z,4.70
2018-10-16T06:12:11.055Z,4.60
2018-10-16T06:14:42.220Z,4.60
2018-10-16T06:17:13.507Z,4.60
2018-10-16T06:19:44.745Z,4.60
2018-10-16T06:22:15.797Z,4.60
2018-10-16T06:24:46.907Z,4.60
2018-10-16T06:27:18.247Z,4.50
2018-10-16T06:29:49.490Z,4.50
2018-10-16T06:32:20.643Z,4.50
2018-10-16T06:34:58.065Z,4.40
2018-10-16T06:37:29.251Z,4.30
2018-10-16T06:40:03.219Z,4.10
2018-10-16T06:42:38.406Z,4.10
2018-10-16T06:45:11.053Z,4.00
2018-10-16T06:47:42.552Z,3.90
2018-10-16T06:50:14.022Z,3.80
2018-10-16T06:52:46.020Z,3.80
2018-10-16T06:55:17.343Z,3.80
2018-10-16T06:57:48.852Z,3.80
2018-10-16T07:00:20.376Z,3.80
2018-10-16T07:02:51.996Z,3.80
2018-10-16T07:05:23.595Z,3.80
2018-10-16T07:07:55.017Z,3.80
2018-10-16T07:10:26.811Z,3.70
2018-10-16T07:12:58.184Z,3.80
2018-10-16T07:15:29.976Z,3.90
2018-10-16T07:18:01.538Z,3.90
2018-10-16T07:20:33.064Z,3.90
2018-10-16T07:23:04.398Z,3.90
2018-10-16T07:25:35.924Z,4.00
2018-10-16T07:28:07.268Z,4.00
2018-10-16T07:30:38.887Z,4.10
2018-10-16T07:33:10.835Z,4.10
2018-10-16T07:35:42.708Z,4.20
2018-10-16T07:38:14.386Z,4.10
2018-10-16T07:40:46.341Z,4.20
2018-10-16T07:43:17.839Z,4.20
2018-10-16T07:45:49.371Z,4.20
2018-10-16T07:48:20.923Z,4.30
2018-10-16T07:50:52.399Z,4.30
2018-10-16T07:53:24.033Z,4.30
2018-10-16T07:55:55.731Z,4.40
2018-10-16T07:58:27.739Z,4.40
2018-10-16T08:00:59.976Z,4.50
2018-10-16T08:03:31.667Z,4.50
2018-10-16T08:06:03.099Z,4.50
2018-10-16T08:08:34.572Z,4.50
2018-10-16T08:11:05.893Z,4.50
2018-10-16T08:13:37.423Z,4.50
2018-10-16T08:16:09.970Z,4.60
2018-10-16T08:18:41.937Z,4.60
2018-10-16T08:21:13.582Z,4.50
2018-10-16T08:23:45.120Z,4.50
2018-10-16T08:26:16.713Z,4.40
2018-10-16T08:28:47.997Z,4.30
2018-10-16T08:31:19.235Z,4.30
2018-10-16T08:33:50.689Z,4.30
2018-10-16T08:36:22.453Z,4.30
2018-10-16T08:39:02.709Z,4.30
2018-10-16T08:41:40.317Z,4.20
2018-10-16T08:45:22.791Z,4.10
2018-10-16T08:50:36.751Z,4.00
2018-10-16T08:53:08.265Z,4.00
2018-10-16T08:55:39.704Z,4.00
2018-10-16T08:58:11.128Z,4.00
2018-10-16T09:00:42.906Z,4.00
2018-10-16T09:03:14.269Z,4.00
2018-10-16T09:05:45.967Z,4.00
2018-10-16T09:08:17.053Z,4.00
2018-10-16T09:10:48.945Z,4.00
2018-10-16T09:13:19.904Z,3.90
2018-10-16T09:15:51.114Z,3.90
2018-10-16T09:18:22.449Z,3.80
2018-10-16T09:20:53.548Z,3.80
2018-10-16T09:23:24.744Z,3.80
2018-10-16T09:25:55.921Z,3.80
2018-10-16T09:28:27.144Z,3.70
2018-10-16T09:30:58.809Z,3.70
2018-10-16T09:33:29.908Z,3.70
2018-10-16T09:36:01.217Z,3.70
2018-10-16T09:38:32.753Z,3.70
2018-10-16T09:41:03.985Z,3.80
2018-10-16T09:43:35.405Z,3.80
2018-10-16T09:46:07.079Z,3.80
2018-10-16T09:48:38.079Z,3.90
2018-10-16T09:51:09.504Z,3.90
2018-10-16T09:53:40.952Z,3.90
2018-10-16T09:56:12.885Z,3.90
2018-10-16T09:58:44.384Z,3.90
2018-10-16T10:01:20.525Z,3.80
2018-10-16T10:03:51.586Z,3.80
2018-10-16T10:06:22.665Z,3.80
2018-10-16T10:08:53.685Z,3.80
2018-10-16T10:11:25.182Z,3.80
2018-10-16T10:13:56.166Z,3.80
2018-10-16T10:16:27.598Z,3.80
2018-10-16T10:18:59.156Z,3.90
2018-10-16T10:21:30.739Z,3.90
2018-10-16T10:24:02.271Z,3.90
2018-10-16T10:26:33.613Z,3.90
2018-10-16T10:29:04.749Z,3.90
2018-10-16T10:31:35.944Z,3.90
2018-10-16T10:34:07.441Z,3.80
2018-10-16T10:36:38.894Z,3.70
2018-10-16T10:39:13.428Z,3.60
2018-10-16T10:41:45.092Z,3.50
2018-10-16T10:44:16.575Z,3.40
2018-10-16T10:46:48.293Z,3.30
2018-10-16T10:49:20.029Z,3.30
2018-10-16T10:51:51.352Z,3.30
2018-10-16T10:54:22.581Z,3.20
2018-10-16T10:56:54.292Z,3.10
2018-10-16T10:59:26.676Z,3.00
2018-10-16T11:01:59.066Z,3.00
2018-10-16T11:04:33.033Z,2.90
2018-10-16T11:07:04.720Z,2.80
2018-10-16T11:09:35.796Z,2.70
2018-10-16T11:12:13.659Z,2.50
2018-10-16T11:14:45.064Z,2.50
2018-10-16T11:17:16.537Z,2.40
2018-10-16T11:19:48.614Z,2.40
2018-10-16T11:22:19.669Z,2.30
2018-10-16T11:24:51.120Z,2.30
2018-10-16T11:27:22.626Z,2.30
2018-10-16T11:29:54.252Z,2.20
2018-10-16T11:32:25.617Z,2.10
2018-10-16T11:34:57.100Z,2.10
2018-10-16T11:37:28.260Z,2.10
2018-10-16T11:39:59.512Z,2.10
2018-10-16T11:42:30.940Z,2.10
2018-10-16T11:45:02.573Z,2.00
2018-10-16T11:47:33.915Z,2.00
2018-10-16T11:50:05.574Z,2.10
2018-10-16T11:52:37.058Z,2.10
2018-10-16T11:55:09.952Z,2.10
2018-10-16T11:57:41.218Z,2.20
2018-10-16T12:00:16.549Z,2.20
2018-10-16T12:02:48.374Z,2.30
2018-10-16T12:05:19.829Z,2.30
2018-10-16T12:07:51.229Z,2.40
2018-10-16T12:10:22.300Z,2.60
2018-10-16T12:12:53.601Z,2.70
2018-10-16T12:15:25.135Z,2.80
2018-10-16T12:18:20.311Z,2.80
2018-10-16T12:20:58.554Z,2.90
2018-10-16T12:23:30.116Z,2.90
2018-10-16T12:26:01.688Z,2.90
2018-10-16T12:28:33.445Z,2.90
2018-10-16T12:31:04.413Z,2.90
2018-10-16T12:33:36.041Z,2.90
2018-10-16T12:36:07.897Z,2.90
2018-10-16T12:38:39.449Z,2.90
2018-10-16T12:41:10.972Z,2.90
2018-10-16T12:43:42.152Z,3.00
2018-10-16T12:46:19.584Z,3.00
2018-10-16T12:48:50.871Z,3.10
2018-10-16T12:51:22.159Z,3.20
2018-10-16T12:53:53.167Z,3.30
2018-10-16T12:56:24.200Z,3.40
2018-10-16T12:58:55.216Z,3.50
2018-10-16T13:01:26.861Z,3.60
2018-10-16T13:03:58.011Z,3.70
2018-10-16T13:06:29.234Z,3.90
2018-10-16T13:09:00.253Z,3.90
2018-10-16T13:11:31.763Z,3.90
2018-10-16T13:14:02.967Z,3.90
2018-10-16T13:16:34.105Z,4.00
2018-10-16T13:19:05.186Z,4.10
2018-10-16T13:21:36.693Z,4.20
2018-10-16T13:24:07.919Z,4.30
2018-10-16T13:26:39.219Z,4.40
2018-10-16T13:29:10.264Z,4.60
2018-10-16T13:31:41.565Z,4.60
2018-10-16T13:34:12.656Z,4.50
2018-10-16T13:36:43.814Z,4.40
2018-10-16T13:39:14.821Z,4.40
2018-10-16T13:41:45.834Z,4.50
2018-10-16T13:44:17.124Z,4.50
2018-10-16T13:46:48.422Z,4.60
2018-10-16T13:49:19.737Z,4.50
2018-10-16T13:51:50.861Z,4.50
2018-10-16T13:54:22.145Z,4.60
2018-10-16T13:56:53.497Z,4.80
2018-10-16T13:59:24.604Z,4.90
2018-10-16T14:01:55.698Z,5.00
2018-10-16T14:04:26.937Z,5.10
2018-10-16T14:06:58.584Z,5.10
2018-10-16T14:09:29.523Z,5.20
2018-10-16T14:12:00.865Z,5.40
2018-10-16T14:14:31.980Z,5.60
2018-10-16T14:17:03.346Z,5.70
2018-10-16T14:19:34.805Z,6.00
2018-10-16T14:22:06.293Z,6.10
2018-10-16T14:24:37.454Z,6.20
2018-10-16T14:27:09.207Z,6.30
2018-10-16T14:29:40.585Z,6.30
2018-10-16T14:32:12.440Z,6.20
2018-10-16T14:34:44.741Z,6.20
2018-10-16T14:37:16.139Z,6.30
2018-10-16T14:39:47.348Z,6.80
2018-10-16T14:42:18.693Z,7.00
2018-10-16T14:44:50.332Z,6.90
2018-10-16T14:47:21.948Z,6.60
2018-10-16T14:49:53.141Z,6.70
2018-10-16T14:52:24.535Z,6.70
2018-10-16T14:54:55.990Z,6.80
2018-10-16T14:57:27.010Z,7.00
2018-10-16T14:59:58.575Z,7.00
2018-10-16T15:02:30.143Z,7.00
2018-10-16T15:05:01.918Z,7.30
2018-10-16T15:07:33.243Z,7.50
2018-10-16T15:10:04.979Z,7.60
2018-10-16T15:12:36.257Z,7.70
2018-10-16T15:15:08.295Z,7.70
2018-10-16T15:17:39.891Z,7.50
2018-10-16T15:20:12.272Z,7.60
2018-10-16T15:22:44.036Z,7.60
2018-10-16T15:25:15.170Z,7.70
2018-10-16T15:27:46.425Z,8.00
2018-10-16T15:30:17.466Z,8.30
2018-10-16T15:32:48.798Z,8.60
2018-10-16T15:35:19.817Z,8.70
2018-10-16T15:37:50.904Z,8.40
2018-10-16T15:40:22.191Z,8.20
2018-10-16T15:42:53.255Z,8.30
2018-10-16T15:45:24.331Z,8.40
2018-10-16T15:47:55.446Z,8.80
2018-10-16T15:50:26.798Z,8.90
2018-10-16T15:52:57.816Z,9.40
2018-10-16T15:55:29.229Z,9.50
2018-10-16T15:58:00.361Z,9.50
2018-10-16T16:00:32.598Z,9.40
2018-10-16T16:03:04.321Z,9.30
2018-10-16T16:05:35.465Z,9.40
2018-10-16T16:08:07.144Z,9.80
2018-10-16T16:10:38.270Z,9.40
2018-10-16T16:13:10.398Z,9.20
2018-10-16T16:15:41.563Z,9.60
2018-10-16T16:18:12.728Z,9.90
2018-10-16T16:20:43.690Z,9.60
2018-10-16T16:23:14.843Z,9.20
2018-10-16T16:25:46.034Z,9.20
2018-10-16T16:28:17.053Z,9.50
2018-10-16T16:30:48.222Z,9.40
2018-10-16T16:33:19.423Z,9.10
2018-10-16T16:35:50.539Z,9.20
2018-10-16T16:38:21.831Z,9.50
2018-10-16T16:40:52.986Z,9.50
2018-10-16T16:43:24.576Z,9.50
2018-10-16T16:45:55.607Z,9.60
2018-10-16T16:48:26.629Z,9.80
2018-10-16T16:50:58.645Z,9.60
2018-10-16T16:53:29.602Z,9.50
2018-10-16T16:56:01.412Z,9.60
2018-10-16T16:58:32.508Z,9.70
2018-10-16T17:01:03.929Z,9.40
2018-10-16T17:03:34.957Z,9.20
2018-10-16T17:06:06.685Z,9.00
2018-10-16T17:08:37.736Z,9.00
2018-10-16T17:11:08.826Z,9.20
2018-10-16T17:13:39.873Z,9.20
2018-10-16T17:16:11.563Z,9.30
2018-10-16T17:18:43.120Z,9.40
2018-10-16T17:21:14.679Z,9.30
2018-10-16T17:23:46.254Z,9.20
2018-10-16T17:26:18.155Z,9.00
2018-10-16T17:28:49.171Z,8.70
2018-10-16T17:31:20.679Z,8.80
2018-10-16T17:33:52.224Z,8.60
2018-10-16T17:36:23.729Z,8.60
2018-10-16T17:38:54.838Z,8.70
2018-10-16T17:41:26.208Z,8.70
2018-10-16T17:43:57.506Z,8.80
2018-10-16T17:46:29.023Z,8.80
2018-10-16T17:49:00.625Z,8.80
2018-10-16T17:51:32.084Z,8.70
2018-10-16T17:54:03.668Z,8.80
2018-10-16T17:56:35.074Z,8.90
2018-10-16T17:59:06.219Z,9.10
2018-10-16T18:01:37.660Z,9.20
2018-10-16T18:04:09.067Z,9.10
2018-10-16T18:06:40.166Z,9.10
2018-10-16T18:09:11.558Z,9.10
2018-10-16T18:11:43.063Z,9.00
2018-10-16T18:14:14.611Z,9.00
2018-10-16T18:16:45.902Z,8.90
2018-10-16T18:19:17.248Z,8.80
2018-10-16T18:21:48.966Z,8.60
2018-10-16T18:24:20.278Z,8.70
2018-10-16T18:26:52.224Z,8.90
2018-10-16T18:29:23.525Z,9.00
2018-10-16T18:31:55.298Z,9.10
2018-10-16T18:34:27.137Z,9.10
2018-10-16T18:36:58.152Z,9.20
2018-10-16T18:39:29.751Z,9.30
2018-10-16T18:42:01.476Z,9.20
2018-10-16T18:44:32.884Z,9.20
2018-10-16T18:47:04.673Z,9.10
2018-10-16T18:49:36.595Z,8.90
2018-10-16T18:52:07.954Z,8.80
2018-10-16T18:54:39.856Z,8.90
2018-10-16T18:57:11.676Z,8.90
2018-10-16T18:59:43.147Z,9.10
2018-10-16T19:02:14.710Z,9.20
2018-10-16T19:04:46.282Z,9.20
2018-10-16T19:07:17.655Z,9.50
2018-10-16T19:09:48.809Z,9.70
2018-10-16T19:12:19.831Z,9.60
2018-10-16T19:14:51.103Z,9.20
2018-10-16T19:17:22.556Z,9.10
2018-10-16T19:19:54.405Z,9.00
2018-10-16T19:22:25.879Z,8.90
2018-10-16T19:24:57.583Z,8.80
2018-10-16T19:27:29.322Z,8.70
2018-10-16T19:30:00.579Z,8.80
2018-10-16T19:32:32.170Z,8.90
2018-10-16T19:35:03.827Z,9.00
2018-10-16T19:37:35.629Z,9.00
2018-10-16T19:40:07.381Z,9.10
2018-10-16T19:42:39.016Z,9.10
2018-10-16T19:45:11.351Z,9.10
2018-10-16T19:47:42.515Z,9.20
2018-10-16T19:50:13.855Z,9.30
2018-10-16T19:52:45.384Z,9.30
2018-10-16T19:55:17.046Z,9.30
2018-10-16T19:57:48.610Z,9.30
2018-10-16T20:00:19.924Z,9.30
2018-10-16T20:02:51.449Z,9.20
2018-10-16T20:05:22.974Z,9.10
2018-10-16T20:07:54.425Z,9.00
2018-10-16T20:10:26.109Z,9.00
2018-10-16T20:12:57.675Z,9.00
2018-10-16T20:15:29.458Z,9.00
2018-10-16T20:18:00.845Z,9.10
2018-10-16T20:20:32.625Z,9.10
2018-10-16T20:23:04.083Z,9.20
2018-10-16T20:25:35.565Z,9.30
2018-10-16T20:28:06.909Z,9.30
2018-10-16T20:30:38.843Z,9.50
2018-10-16T20:33:10.162Z,9.70
2018-10-16T20:35:41.925Z,9.80
2018-10-16T20:38:13.760Z,9.60
2018-10-16T20:40:46.013Z,9.40
2018-10-16T20:43:17.459Z,9.20
2018-10-16T20:45:49.206Z,9.30
2018-10-16T20:48:20.418Z,9.70
2018-10-16T20:50:51.946Z,10.20
2018-10-16T20:53:23.712Z,10.30
2018-10-16T20:55:54.989Z,10.30
2018-10-16T20:58:26.794Z,10.20
2018-10-16T21:00:58.535Z,9.70
2018-10-16T21:03:30.159Z,9.40
2018-10-16T21:06:02.336Z,9.20
2018-10-16T21:08:33.760Z,9.00
2018-10-16T21:11:05.321Z,9.00
2018-10-16T21:13:37.006Z,9.00
2018-10-16T21:16:08.637Z,9.00
2018-10-16T21:18:40.470Z,9.00
2018-10-16T21:21:11.968Z,8.90
2018-10-16T21:23:42.996Z,8.90
2018-10-16T21:26:14.307Z,8.70
2018-10-16T21:28:45.603Z,8.60
2018-10-16T21:31:16.745Z,8.60
2018-10-16T21:33:48.181Z,8.70
2018-10-16T21:36:19.145Z,8.80
2018-10-16T21:38:50.090Z,8.80
2018-10-16T21:41:21.236Z,8.70
2018-10-16T21:43:52.279Z,8.60
2018-10-16T21:46:23.793Z,8.40
2018-10-16T21:48:55.037Z,8.30
2018-10-16T21:51:26.503Z,8.20
2018-10-16T21:53:57.648Z,8.10
2018-10-16T21:56:28.902Z,7.90
2018-10-16T21:58:59.951Z,7.70
2018-10-16T22:01:35.690Z,7.60
2018-10-16T22:04:07.136Z,7.40
2018-10-16T22:06:38.162Z,7.30
2018-10-16T22:09:13.607Z,7.10
2018-10-16T22:11:45.084Z,7.00
2018-10-16T22:14:16.126Z,6.90
2018-10-16T22:16:47.504Z,6.80
2018-10-16T22:19:18.793Z,6.80
2018-10-16T22:21:50.349Z,6.60
2018-10-16T22:24:21.690Z,6.60
2018-10-16T22:26:53.004Z,6.60
2018-10-16T22:29:24.815Z,6.70
2018-10-16T22:31:56.353Z,6.70
2018-10-16T22:34:27.602Z,6.70
2018-10-16T22:36:58.635Z,6.60
2018-10-16T22:39:29.798Z,6.50
2018-10-16T22:42:01.572Z,6.40
2018-10-16T22:44:33.987Z,6.40
2018-10-16T22:50:11.842Z,6.30
2018-10-16T22:52:54.048Z,6.30
2018-10-16T22:55:25.182Z,6.20
2018-10-16T22:57:56.264Z,6.20
2018-10-16T23:00:27.315Z,6.20
2018-10-16T23:02:58.405Z,6.20
2018-10-16T23:05:29.466Z,6.10
2018-10-16T23:08:00.786Z,6.10
2018-10-16T23:10:31.865Z,6.00
2018-10-16T23:13:06.911Z,5.90
2018-10-16T23:15:37.993Z,6.00
2018-10-16T23:18:09.114Z,6.00
2018-10-16T23:20:40.196Z,5.90
2018-10-16T23:23:11.390Z,5.90
2018-10-16T23:25:44.388Z,5.80
2018-10-16T23:28:15.780Z,5.80
2018-10-16T23:30:46.837Z,5.80
2018-10-16T23:33:17.995Z,5.70
2018-10-16T23:35:49.116Z,5.70
2018-10-16T23:38:20.120Z,5.70
2018-10-16T23:40:51.369Z,5.70
2018-10-16T23:45:48.142Z,5.80
2018-10-16T23:48:19.100Z,5.80
2018-10-16T23:50:50.159Z,5.90
2018-10-16T23:53:21.329Z,6.00
2018-10-16T23:55:52.565Z,6.00
2018-10-16T23:58:23.740Z,6.10
